createdAt,value
2022-12-28T00:01:24.706Z,2.93
2022-12-28T00:03:53.972Z,2.80
2022-12-28T00:06:24.917Z,3.17
2022-12-28T00:08:54.753Z,2.80
2022-12-28T00:11:26.575Z,2.40
2022-12-28T00:14:00.094Z,2.77
2022-12-28T00:16:29.768Z,2.27
2022-12-28T00:18:58.853Z,2.80
2022-12-28T00:21:28.671Z,2.70
2022-12-28T00:23:58.607Z,2.40
2022-12-28T00:26:27.692Z,3.10
2022-12-28T00:28:59.859Z,3.37
2022-12-28T00:31:32.097Z,3.00
2022-12-28T00:33:59.984Z,2.70
2022-12-28T00:37:10.212Z,3.20
2022-12-28T00:39:17.100Z,3.60
2022-12-28T00:41:44.871Z,3.17
2022-12-28T00:44:12.638Z,2.93
2022-12-28T00:46:40.387Z,3.20
2022-12-28T00:49:08.230Z,3.03
2022-12-28T00:51:37.345Z,3.50
2022-12-28T00:54:05.426Z,3.30
2022-12-28T00:56:33.148Z,3.70
2022-12-28T00:59:01.587Z,3.30
2022-12-28T01:01:30.327Z,4.03
2022-12-28T01:03:59.026Z,3.20
2022-12-28T01:06:28.388Z,3.30
2022-12-28T01:08:57.494Z,4.07
2022-12-28T01:11:27.249Z,3.70
2022-12-28T01:13:56.483Z,3.97
2022-12-28T01:16:26.113Z,4.17
2022-12-28T01:18:56.272Z,4.00
2022-12-28T01:21:27.204Z,3.70
2022-12-28T01:23:57.779Z,4.47
2022-12-28T01:26:25.923Z,4.90
2022-12-28T01:28:53.695Z,4.47
2022-12-28T01:31:22.968Z,4.77
2022-12-28T01:33:51.028Z,4.33
2022-12-28T01:36:20.747Z,4.43
2022-12-28T01:38:49.973Z,5.67
2022-12-28T01:41:20.381Z,5.40
2022-12-28T01:44:10.303Z,5.40
2022-12-28T01:46:40.965Z,4.97
2022-12-28T01:49:13.137Z,6.20
2022-12-28T01:51:48.952Z,5.93
2022-12-28T01:54:17.883Z,5.90
2022-12-28T01:56:48.540Z,5.93
2022-12-28T01:59:18.574Z,6.20
2022-12-28T02:01:46.752Z,6.70
2022-12-28T02:04:14.627Z,6.83
2022-12-28T02:06:42.456Z,6.53
2022-12-28T02:09:15.439Z,6.83
2022-12-28T02:11:43.193Z,7.40
2022-12-28T02:14:14.791Z,7.50
2022-12-28T02:16:43.838Z,8.03
2022-12-28T02:19:19.196Z,8.00
2022-12-28T02:21:56.422Z,8.53
2022-12-28T02:24:45.861Z,8.50
2022-12-28T02:27:24.808Z,8.17
2022-12-28T02:30:04.019Z,9.03
2022-12-28T02:32:46.435Z,8.17
2022-12-28T02:35:22.785Z,8.67
2022-12-28T02:37:55.832Z,8.50
2022-12-28T02:40:27.608Z,8.10
2022-12-28T02:42:56.220Z,9.23
2022-12-28T02:45:51.382Z,9.53
2022-12-28T02:48:36.653Z,8.40
2022-12-28T02:51:21.614Z,9.83
2022-12-28T02:54:08.618Z,8.40
2022-12-28T02:56:44.957Z,9.23
2022-12-28T02:59:44.936Z,10.17
2022-12-28T03:02:35.230Z,10.20
2022-12-28T03:05:12.921Z,9.53
2022-12-28T03:08:09.314Z,10.23
2022-12-28T03:10:45.756Z,10.60
2022-12-28T03:13:37.387Z,9.93
2022-12-28T03:16:09.157Z,11.27
2022-12-28T03:18:58.789Z,10.77
2022-12-28T03:21:46.642Z,10.07
2022-12-28T03:24:35.434Z,10.40
2022-12-28T03:27:24.730Z,10.37
2022-12-28T03:30:18.161Z,11.20
2022-12-28T03:32:47.222Z,10.17
2022-12-28T03:35:17.587Z,10.40
2022-12-28T03:37:51.405Z,11.13
2022-12-28T03:40:28.488Z,10.53
2022-12-28T03:43:18.102Z,10.03
2022-12-28T03:45:53.035Z,9.60
2022-12-28T03:48:21.061Z,10.50
2022-12-28T03:50:52.014Z,10.53
2022-12-28T03:53:25.330Z,11.63
2022-12-28T03:55:53.076Z,10.17
2022-12-28T03:58:22.481Z,10.53
2022-12-28T04:00:50.215Z,10.60
2022-12-28T04:03:18.016Z,10.73
2022-12-28T04:05:45.731Z,10.63
2022-12-28T04:08:14.796Z,10.63
2022-12-28T04:10:42.487Z,11.17
2022-12-28T04:13:10.192Z,11.00
2022-12-28T04:15:39.312Z,10.30
2022-12-28T04:18:07.079Z,10.70
2022-12-28T04:20:35.396Z,10.43
2022-12-28T04:23:03.114Z,10.53
2022-12-28T04:25:32.164Z,10.60
2022-12-28T04:27:59.818Z,11.17
2022-12-28T04:30:27.533Z,10.67
2022-12-28T04:32:56.598Z,10.20
2022-12-28T04:35:24.294Z,10.77
2022-12-28T04:37:52.019Z,11.20
2022-12-28T04:40:19.711Z,10.60
2022-12-28T04:42:48.956Z,11.97
2022-12-28T04:45:21.720Z,11.27
2022-12-28T04:47:49.976Z,10.87
2022-12-28T04:50:17.702Z,11.03
2022-12-28T04:52:45.316Z,10.83
2022-12-28T04:55:32.072Z,10.50
2022-12-28T04:58:02.369Z,10.67
2022-12-28T05:00:30.189Z,10.17
2022-12-28T05:02:59.759Z,10.10
2022-12-28T05:05:28.466Z,10.20
2022-12-28T05:07:56.193Z,9.80
2022-12-28T05:10:23.846Z,9.57
2022-12-28T05:12:51.547Z,10.60
2022-12-28T05:15:20.639Z,9.07
2022-12-28T05:17:48.443Z,10.07
2022-12-28T05:20:18.041Z,9.13
2022-12-28T05:22:45.777Z,9.73
2022-12-28T05:25:13.468Z,9.77
2022-12-28T05:27:41.234Z,10.00
2022-12-28T05:30:10.123Z,9.80
2022-12-28T05:32:39.253Z,9.67
2022-12-28T05:35:07.995Z,10.13
2022-12-28T05:37:35.658Z,10.20
2022-12-28T05:40:03.740Z,9.53
2022-12-28T05:42:31.497Z,9.80
2022-12-28T05:44:59.280Z,8.57
2022-12-28T05:47:27.254Z,10.07
2022-12-28T05:49:56.299Z,9.77
2022-12-28T05:52:24.009Z,9.03
2022-12-28T05:54:51.750Z,8.73
2022-12-28T05:57:19.449Z,9.37
2022-12-28T05:59:47.099Z,9.13
2022-12-28T06:02:17.094Z,8.80
2022-12-28T06:04:46.818Z,10.47
2022-12-28T06:07:16.106Z,10.17
2022-12-28T06:09:43.896Z,9.53
2022-12-28T06:12:11.596Z,9.67
2022-12-28T06:14:39.403Z,10.20
2022-12-28T06:17:07.093Z,10.07
2022-12-28T06:19:34.835Z,9.90
2022-12-28T06:22:02.815Z,10.33
2022-12-28T06:24:31.897Z,10.03
2022-12-28T06:26:59.544Z,10.70
2022-12-28T06:29:27.234Z,10.83
2022-12-28T06:31:56.564Z,10.63
2022-12-28T06:34:24.419Z,10.43
2022-12-28T06:36:52.553Z,10.73
2022-12-28T06:39:20.315Z,10.30
2022-12-28T06:41:49.431Z,9.87
2022-12-28T06:44:17.199Z,10.90
2022-12-28T06:46:44.939Z,10.30
2022-12-28T06:49:12.738Z,11.47
2022-12-28T06:51:41.991Z,10.10
2022-12-28T06:54:10.688Z,10.03
2022-12-28T06:56:38.819Z,11.03
2022-12-28T06:59:08.256Z,10.63
2022-12-28T07:01:38.515Z,10.50
2022-12-28T07:04:10.387Z,10.60
2022-12-28T07:06:40.167Z,11.37
2022-12-28T07:09:10.385Z,11.13
2022-12-28T07:11:38.421Z,10.57
2022-12-28T07:14:07.558Z,10.80
2022-12-28T07:19:02.464Z,10.63
2022-12-28T07:21:32.727Z,11.87
2022-12-28T07:24:00.732Z,11.90
2022-12-28T07:26:30.058Z,11.77
2022-12-28T07:28:59.419Z,11.87
2022-12-28T07:31:30.216Z,10.67
2022-12-28T07:33:59.336Z,11.83
2022-12-28T07:36:28.432Z,11.50
2022-12-28T07:38:58.588Z,11.57
2022-12-28T07:41:28.920Z,11.97
2022-12-28T07:43:56.782Z,11.87
2022-12-28T07:46:26.210Z,12.17
2022-12-28T07:48:56.954Z,10.93
2022-12-28T07:51:27.101Z,11.83
2022-12-28T07:53:56.351Z,11.00
2022-12-28T07:56:25.457Z,10.70
2022-12-28T07:58:55.155Z,10.47
2022-12-28T08:01:25.015Z,10.77
2022-12-28T08:03:56.461Z,10.97
2022-12-28T08:06:25.652Z,10.13
2022-12-28T08:08:55.587Z,10.03
2022-12-28T08:11:25.280Z,9.80
2022-12-28T08:13:55.169Z,9.57
2022-12-28T08:16:24.928Z,9.57
2022-12-28T08:18:52.918Z,9.57
2022-12-28T08:21:24.380Z,8.87
2022-12-28T08:23:52.351Z,9.00
2022-12-28T08:26:21.850Z,9.93
2022-12-28T08:28:51.868Z,8.83
2022-12-28T08:31:21.195Z,8.40
2022-12-28T08:33:49.551Z,9.17
2022-12-28T08:36:17.889Z,8.47
2022-12-28T08:38:47.487Z,7.97
2022-12-28T08:41:17.891Z,7.63
2022-12-28T08:43:46.619Z,8.13
2022-12-28T08:46:17.418Z,7.83
2022-12-28T08:48:46.499Z,7.90
2022-12-28T08:51:17.044Z,7.43
2022-12-28T08:53:45.180Z,6.80
2022-12-28T08:56:16.237Z,7.57
2022-12-28T08:58:44.992Z,7.67
2022-12-28T09:01:14.917Z,6.60
2022-12-28T09:03:44.867Z,7.10
2022-12-28T09:06:14.012Z,7.37
2022-12-28T09:08:42.693Z,7.53
2022-12-28T09:11:12.865Z,6.40
2022-12-28T09:13:42.077Z,6.10
2022-12-28T09:16:11.527Z,7.03
2022-12-28T09:18:40.578Z,6.33
2022-12-28T09:21:11.497Z,7.00
2022-12-28T09:23:39.249Z,6.00
2022-12-28T09:26:08.742Z,6.17
2022-12-28T09:28:36.506Z,6.43
2022-12-28T09:31:07.699Z,6.63
2022-12-28T09:34:32.039Z,6.10
2022-12-28T09:36:43.835Z,6.40
2022-12-28T09:39:13.884Z,5.67
2022-12-28T09:41:48.202Z,6.10
2022-12-28T09:44:43.157Z,6.30
2022-12-28T09:47:24.160Z,5.77
2022-12-28T09:50:03.591Z,5.80
2022-12-28T09:52:34.994Z,5.70
2022-12-28T09:55:10.333Z,5.63
2022-12-28T09:57:41.242Z,5.67
2022-12-28T10:00:17.941Z,5.37
2022-12-28T10:02:50.772Z,5.80
2022-12-28T10:05:20.509Z,5.67
2022-12-28T10:07:48.394Z,5.20
2022-12-28T10:10:20.009Z,5.00
2022-12-28T10:12:49.618Z,5.33
2022-12-28T10:15:18.384Z,5.03
2022-12-28T10:17:47.453Z,5.00
2022-12-28T10:20:18.062Z,4.83
2022-12-28T10:22:50.346Z,4.63
2022-12-28T10:25:20.371Z,4.80
2022-12-28T10:27:48.369Z,4.77
2022-12-28T10:30:18.593Z,5.10
2022-12-28T10:32:56.677Z,4.73
2022-12-28T10:35:33.198Z,4.03
2022-12-28T10:38:04.746Z,4.80
2022-12-28T10:40:34.958Z,4.00
2022-12-28T10:45:53.045Z,4.63
2022-12-28T10:48:25.964Z,3.70
2022-12-28T10:50:56.043Z,3.57
2022-12-28T10:53:29.903Z,3.77
2022-12-28T10:56:24.869Z,3.77
2022-12-28T10:58:53.915Z,3.70
2022-12-28T11:01:26.846Z,4.97
2022-12-28T11:03:20.600Z,4.83
2022-12-28T11:04:09.184Z,4.57
2022-12-28T11:06:51.330Z,4.13
2022-12-28T11:09:22.660Z,4.17
2022-12-28T11:11:54.375Z,3.33
2022-12-28T11:14:32.779Z,3.57
2022-12-28T11:17:16.318Z,3.57
2022-12-28T11:19:45.814Z,3.67
2022-12-28T11:22:16.721Z,3.27
2022-12-28T11:24:45.567Z,3.43
2022-12-28T11:27:17.334Z,3.47
2022-12-28T11:29:47.878Z,3.40
2022-12-28T11:32:22.514Z,4.03
2022-12-28T11:34:53.521Z,3.30
2022-12-28T11:37:21.211Z,3.30
2022-12-28T11:39:50.506Z,2.57
2022-12-28T11:42:51.333Z,2.80
2022-12-28T11:45:51.424Z,2.83
2022-12-28T11:48:49.631Z,2.63
2022-12-28T11:51:19.725Z,2.17
2022-12-28T11:53:57.604Z,2.90
2022-12-28T11:56:27.655Z,2.10
2022-12-28T11:59:07.299Z,1.87
2022-12-28T12:01:53.642Z,2.47
2022-12-28T12:04:41.742Z,1.50
2022-12-28T12:07:56.874Z,1.67
2022-12-28T12:10:36.057Z,2.50
2022-12-28T12:13:30.204Z,2.17
2022-12-28T12:16:04.027Z,1.70
2022-12-28T12:18:39.516Z,1.27
2022-12-28T12:21:15.566Z,1.53
2022-12-28T12:23:49.408Z,1.97
2022-12-28T12:26:28.605Z,1.63
2022-12-28T12:29:01.684Z,1.63
2022-12-28T12:31:32.513Z,1.80
2022-12-28T12:34:13.323Z,1.37
2022-12-28T12:37:14.217Z,1.70
2022-12-28T12:40:04.646Z,2.07
2022-12-28T12:42:45.555Z,1.23
2022-12-28T12:45:22.932Z,1.20
2022-12-28T12:48:18.687Z,1.40
2022-12-28T12:51:11.906Z,1.70
2022-12-28T12:53:58.970Z,1.67
2022-12-28T12:56:38.432Z,1.20
2022-12-28T12:59:34.494Z,2.10
2022-12-28T13:02:19.819Z,1.50
2022-12-28T13:04:48.239Z,1.80
2022-12-28T13:07:20.985Z,1.37
2022-12-28T13:09:53.209Z,2.23
2022-12-28T13:12:21.896Z,1.37
2022-12-28T13:14:56.175Z,1.67
2022-12-28T13:17:25.628Z,1.97
2022-12-28T13:20:08.926Z,1.97
2022-12-28T13:22:36.603Z,1.70
2022-12-28T13:25:06.244Z,1.63
2022-12-28T13:27:36.509Z,1.83
2022-12-28T13:30:05.215Z,1.90
2022-12-28T13:32:38.623Z,1.70
2022-12-28T13:35:18.760Z,1.40
2022-12-28T13:38:00.112Z,1.57
2022-12-28T13:40:30.437Z,1.60
2022-12-28T13:43:17.550Z,1.83
2022-12-28T13:45:50.965Z,1.67
2022-12-28T13:48:18.936Z,1.30
2022-12-28T13:50:46.805Z,1.40
2022-12-28T13:53:20.573Z,1.20
2022-12-28T13:55:52.619Z,1.43
2022-12-28T13:58:24.313Z,1.33
2022-12-28T14:00:54.633Z,1.43
2022-12-28T14:03:22.843Z,1.40
2022-12-28T14:05:54.983Z,1.67
2022-12-28T14:08:23.550Z,1.60
2022-12-28T14:10:52.960Z,1.90
2022-12-28T14:13:21.542Z,1.70
2022-12-28T14:15:50.094Z,1.83
2022-12-28T14:18:19.466Z,1.57
2022-12-28T14:20:49.150Z,1.40
2022-12-28T14:23:20.479Z,1.30
2022-12-28T14:25:48.488Z,1.40
2022-12-28T14:28:22.774Z,1.53
2022-12-28T14:30:54.625Z,1.43
2022-12-28T14:33:25.382Z,1.60
2022-12-28T14:35:57.445Z,1.70
2022-12-28T14:38:30.993Z,1.00
2022-12-28T14:41:01.142Z,1.17
2022-12-28T14:43:32.979Z,1.10
2022-12-28T14:46:16.171Z,0.90
2022-12-28T14:48:45.507Z,1.07
2022-12-28T14:51:28.661Z,1.40
2022-12-28T14:54:17.359Z,1.13
2022-12-28T14:56:47.528Z,1.43
2022-12-28T14:59:22.677Z,1.10
2022-12-28T15:01:50.425Z,1.20
2022-12-28T15:04:34.695Z,1.23
2022-12-28T15:07:02.804Z,1.40
2022-12-28T15:09:30.548Z,1.13
2022-12-28T15:12:12.705Z,1.63
2022-12-28T15:14:42.165Z,1.47
2022-12-28T15:17:11.224Z,2.00
2022-12-28T15:19:39.206Z,1.73
2022-12-28T15:22:06.977Z,1.13
2022-12-28T15:24:35.097Z,1.50
2022-12-28T15:27:03.100Z,1.10
2022-12-28T15:32:20.205Z,1.70
2022-12-28T15:34:47.935Z,1.70
2022-12-28T15:37:15.723Z,2.40
2022-12-28T15:39:43.397Z,1.93
2022-12-28T15:42:11.098Z,1.60
2022-12-28T15:44:38.852Z,1.77
2022-12-28T15:47:06.923Z,1.43
2022-12-28T15:49:35.984Z,1.40
2022-12-28T15:52:03.636Z,1.43
2022-12-28T15:54:31.320Z,1.40
2022-12-28T15:56:59.095Z,1.73
2022-12-28T15:59:27.646Z,2.20
2022-12-28T16:01:55.424Z,2.60
2022-12-28T16:04:23.251Z,2.30
2022-12-28T16:06:52.265Z,2.00
2022-12-28T16:09:20.047Z,1.60
2022-12-28T16:11:54.700Z,1.60
2022-12-28T16:14:23.055Z,2.40
2022-12-28T16:16:51.320Z,2.10
2022-12-28T16:19:19.126Z,2.33
2022-12-28T16:21:47.269Z,2.70
2022-12-28T16:24:16.252Z,2.17
2022-12-28T16:26:44.700Z,2.20
2022-12-28T16:29:12.635Z,2.23
2022-12-28T16:31:41.292Z,2.23
2022-12-28T16:34:12.186Z,1.47
2022-12-28T16:36:40.266Z,1.50
2022-12-28T16:39:12.917Z,2.13
2022-12-28T16:41:41.954Z,1.60
2022-12-28T16:44:14.852Z,2.00
2022-12-28T16:46:42.921Z,2.00
2022-12-28T16:49:11.908Z,1.80
2022-12-28T16:51:40.565Z,2.00
2022-12-28T16:54:08.804Z,2.07
2022-12-28T16:56:36.913Z,1.90
2022-12-28T16:59:05.933Z,1.97
2022-12-28T17:01:33.703Z,2.13
2022-12-28T17:04:04.071Z,1.67
2022-12-28T17:06:32.369Z,2.53
2022-12-28T17:09:01.710Z,2.07
2022-12-28T17:11:29.910Z,1.70
2022-12-28T17:14:01.561Z,1.40
2022-12-28T17:16:30.651Z,1.70
2022-12-28T17:18:58.736Z,1.67
2022-12-28T17:21:26.724Z,1.50
2022-12-28T17:23:54.536Z,1.70
2022-12-28T17:26:22.295Z,1.83
2022-12-28T17:28:50.071Z,2.80
2022-12-28T17:31:21.263Z,2.30
2022-12-28T17:33:53.704Z,2.27
2022-12-28T17:36:22.304Z,2.17
2022-12-28T17:38:50.104Z,2.97
2022-12-28T17:41:20.696Z,2.53
2022-12-28T17:43:49.135Z,2.80
2022-12-28T17:46:17.157Z,3.77
2022-12-28T17:48:45.100Z,4.80
2022-12-28T17:51:14.210Z,2.73
2022-12-28T17:53:42.367Z,2.90
2022-12-28T17:56:13.214Z,2.60
2022-12-28T17:58:41.629Z,2.63
2022-12-28T18:01:10.042Z,1.77
2022-12-28T18:03:38.781Z,1.90
2022-12-28T18:06:07.314Z,1.40
2022-12-28T18:08:38.708Z,1.50
2022-12-28T18:11:08.596Z,1.10
2022-12-28T18:13:36.334Z,1.20
2022-12-28T18:16:06.142Z,1.53
2022-12-28T18:18:34.424Z,1.10
2022-12-28T18:21:04.263Z,1.20
2022-12-28T18:23:32.462Z,1.50
2022-12-28T18:26:06.006Z,1.20
2022-12-28T18:28:35.407Z,1.60
2022-12-28T18:31:05.291Z,1.07
2022-12-28T18:33:34.244Z,1.57
2022-12-28T18:36:03.658Z,2.20
2022-12-28T18:38:31.678Z,1.37
2022-12-28T18:41:00.140Z,1.40
2022-12-28T18:43:29.236Z,1.00
2022-12-28T18:45:58.867Z,1.10
2022-12-28T18:48:27.983Z,1.10
2022-12-28T18:50:56.553Z,1.47
2022-12-28T18:53:25.611Z,1.20
2022-12-28T18:55:58.445Z,1.37
2022-12-28T18:58:26.461Z,1.47
2022-12-28T19:00:55.573Z,1.20
2022-12-28T19:03:23.372Z,1.40
2022-12-28T19:06:02.291Z,1.20
2022-12-28T19:08:31.258Z,1.10
2022-12-28T19:10:58.931Z,0.90
2022-12-28T19:13:26.720Z,1.40
2022-12-28T19:15:55.780Z,1.80
2022-12-28T19:18:23.431Z,1.47
2022-12-28T19:20:55.839Z,1.60
2022-12-28T19:23:23.585Z,2.20
2022-12-28T19:25:51.313Z,1.90
2022-12-28T19:28:19.023Z,2.57
2022-12-28T19:30:46.878Z,2.40
2022-12-28T19:33:15.990Z,2.07
2022-12-28T19:35:43.632Z,2.50
2022-12-28T19:38:11.378Z,1.67
2022-12-28T19:40:39.112Z,1.10
2022-12-28T19:43:07.036Z,1.27
2022-12-28T19:45:34.769Z,1.20
2022-12-28T19:48:02.493Z,1.27
2022-12-28T19:50:31.502Z,1.30
2022-12-28T19:52:59.255Z,1.30
2022-12-28T19:55:26.918Z,1.83
2022-12-28T19:57:54.606Z,1.47
2022-12-28T20:00:22.458Z,1.33
2022-12-28T20:02:50.265Z,1.43
2022-12-28T20:05:18.117Z,1.17
2022-12-28T20:07:47.113Z,1.43
2022-12-28T20:10:14.916Z,1.40
2022-12-28T20:12:42.615Z,1.23
2022-12-28T20:15:10.815Z,1.20
2022-12-28T20:17:38.467Z,1.47
2022-12-28T20:20:07.301Z,1.10
2022-12-28T20:22:35.081Z,1.10
2022-12-28T20:25:04.362Z,1.50
2022-12-28T20:27:32.153Z,1.57
2022-12-28T20:29:59.922Z,1.60
2022-12-28T20:32:27.674Z,1.27
2022-12-28T20:34:55.606Z,1.53
2022-12-28T20:37:23.400Z,1.80
2022-12-28T20:39:51.132Z,1.63
2022-12-28T20:42:37.722Z,1.67
2022-12-28T20:45:06.200Z,1.93
2022-12-28T20:47:34.048Z,1.63
2022-12-28T20:50:03.892Z,1.30
2022-12-28T20:52:33.782Z,1.43
2022-12-28T20:55:02.038Z,1.30
2022-12-28T20:57:31.292Z,1.57
2022-12-28T21:00:00.343Z,1.33
2022-12-28T21:02:30.204Z,1.70
2022-12-28T21:04:58.013Z,1.57
2022-12-28T21:07:26.195Z,1.20
2022-12-28T21:09:54.025Z,1.43
2022-12-28T21:12:21.816Z,2.17
2022-12-28T21:14:50.991Z,1.27
2022-12-28T21:17:18.894Z,1.50
2022-12-28T21:19:47.772Z,1.30
2022-12-28T21:22:15.605Z,1.47
2022-12-28T21:24:43.488Z,1.37
2022-12-28T21:27:11.315Z,1.10
2022-12-28T21:29:39.547Z,1.30
2022-12-28T21:32:09.432Z,1.17
2022-12-28T21:34:37.353Z,1.53
2022-12-28T21:37:22.146Z,1.40
2022-12-28T21:39:50.236Z,1.57
2022-12-28T21:42:17.948Z,1.60
2022-12-28T21:44:45.905Z,1.10
2022-12-28T21:47:15.154Z,1.47
2022-12-28T21:49:44.549Z,1.57
2022-12-28T21:52:12.401Z,1.60
2022-12-28T21:54:40.539Z,1.60
2022-12-28T21:57:15.204Z,1.60
2022-12-28T21:59:43.863Z,1.30
2022-12-28T22:02:46.393Z,1.47
2022-12-28T22:05:32.309Z,1.80
2022-12-28T22:08:13.951Z,1.30
2022-12-28T22:10:59.209Z,1.30
2022-12-28T22:13:27.038Z,1.20
2022-12-28T22:15:57.976Z,1.73
2022-12-28T22:19:00.436Z,1.90
2022-12-28T22:21:14.809Z,1.10
2022-12-28T22:23:42.584Z,1.10
2022-12-28T22:26:10.290Z,1.30
2022-12-28T22:28:37.970Z,1.23
2022-12-28T22:31:06.503Z,1.13
2022-12-28T22:33:35.768Z,0.97
2022-12-28T22:36:10.286Z,1.00
2022-12-28T22:38:37.983Z,1.20
2022-12-28T22:41:05.838Z,1.20
2022-12-28T22:43:33.570Z,1.50
2022-12-28T22:46:03.340Z,0.93
2022-12-28T22:48:31.407Z,1.43
2022-12-28T22:51:04.155Z,1.17
2022-12-28T22:53:32.085Z,1.13
2022-12-28T22:56:00.314Z,0.97
2022-12-28T22:58:28.828Z,1.50
2022-12-28T23:01:04.960Z,1.17
2022-12-28T23:03:32.791Z,1.00
2022-12-28T23:06:00.511Z,1.30
2022-12-28T23:08:29.550Z,1.50
2022-12-28T23:10:59.335Z,1.43
2022-12-28T23:13:27.995Z,1.80
2022-12-28T23:15:55.863Z,1.40
2022-12-28T23:18:41.170Z,1.40
2022-12-28T23:21:34.174Z,0.90
2022-12-28T23:24:20.901Z,0.80
2022-12-28T23:27:06.297Z,0.80
2022-12-28T23:29:33.978Z,1.00
2022-12-28T23:32:01.662Z,1.00
2022-12-28T23:34:29.370Z,1.10
2022-12-28T23:36:57.191Z,1.10
2022-12-28T23:39:26.301Z,0.90
2022-12-28T23:41:54.892Z,1.00
2022-12-28T23:44:24.335Z,1.40
2022-12-28T23:46:58.558Z,1.60
2022-12-28T23:49:26.487Z,1.70
2022-12-28T23:51:54.524Z,1.60
2022-12-28T23:54:22.421Z,1.67
2022-12-28T23:56:51.462Z,1.10
2022-12-28T23:59:19.117Z,1.10
